Adsdean, United Kingdom
Current Conditions -  °F | °C
As of 9:20 AM on Sunday 26 Oct 2014 (Local Time) from EGHI Reporting Station
Broken Clouds Broken Clouds  
Wind Chill: 55°   Ceiling: 3400
Heat Index: 55°   Visibility: 6mi
Dew Point: 45°   Wind: 8mph
Humidity: 67%   Direction: 230°SW
Pressure: 30.18"   Gusts: NA
Location:  50.86°N, 0.78°W
Report Text: EGHI 260820Z 23007KT 200V270 9999 BKN034 13/07 Q1022
Loading
Personal Weather Stations






























Interactive Weather Map
Tropical Storm Tracking
New forecast layout! Learn more

10-Day Weather Forecast

Advertisements
Track Severe Weather on mobile